sensor_id;sensor_type;location;lat;lon;timestamp;P1;durP1;ratioP1;P2;durP2;ratioP2
71965;SDS011;59836;52.132;5.442;2023-08-24T00:01:13;5.45;;;4.10;;
71965;SDS011;59836;52.132;5.442;2023-08-24T00:03:40;6.28;;;4.07;;
71965;SDS011;59836;52.132;5.442;2023-08-24T00:06:15;4.73;;;3.40;;
71965;SDS011;59836;52.132;5.442;2023-08-24T00:08:45;7.57;;;3.85;;
71965;SDS011;59836;52.132;5.442;2023-08-24T00:13:55;5.15;;;3.58;;
71965;SDS011;59836;52.132;5.442;2023-08-24T00:16:35;5.15;;;3.97;;
71965;SDS011;59836;52.132;5.442;2023-08-24T00:19:06;8.37;;;3.90;;
71965;SDS011;59836;52.132;5.442;2023-08-24T00:21:44;6.38;;;3.88;;
71965;SDS011;59836;52.132;5.442;2023-08-24T00:24:10;6.30;;;3.92;;
71965;SDS011;59836;52.132;5.442;2023-08-24T00:26:37;7.50;;;4.47;;
71965;SDS011;59836;52.132;5.442;2023-08-24T00:29:04;5.65;;;3.90;;
71965;SDS011;59836;52.132;5.442;2023-08-24T00:31:35;5.80;;;4.23;;
71965;SDS011;59836;52.132;5.442;2023-08-24T00:34:02;6.28;;;4.20;;
71965;SDS011;59836;52.132;5.442;2023-08-24T00:39:24;5.47;;;3.72;;
71965;SDS011;59836;52.132;5.442;2023-08-24T00:47:34;5.60;;;3.90;;
71965;SDS011;59836;52.132;5.442;2023-08-24T00:52:34;9.23;;;4.13;;
71965;SDS011;59836;52.132;5.442;2023-08-24T00:55:18;5.13;;;3.75;;
71965;SDS011;59836;52.132;5.442;2023-08-24T01:00:23;7.80;;;4.18;;
71965;SDS011;59836;52.132;5.442;2023-08-24T01:02:50;6.05;;;4.03;;
71965;SDS011;59836;52.132;5.442;2023-08-24T01:05:27;6.80;;;4.55;;
71965;SDS011;59836;52.132;5.442;2023-08-24T01:07:54;5.57;;;4.10;;
71965;SDS011;59836;52.132;5.442;2023-08-24T01:10:21;6.67;;;4.33;;
71965;SDS011;59836;52.132;5.442;2023-08-24T01:15:50;5.15;;;4.20;;
71965;SDS011;59836;52.132;5.442;2023-08-24T01:18:24;6.68;;;4.25;;
71965;SDS011;59836;52.132;5.442;2023-08-24T01:21:04;5.85;;;4.68;;
71965;SDS011;59836;52.132;5.442;2023-08-24T01:26:36;6.10;;;4.00;;
71965;SDS011;59836;52.132;5.442;2023-08-24T01:29:08;5.25;;;4.07;;
71965;SDS011;59836;52.132;5.442;2023-08-24T01:31:42;5.32;;;3.58;;
71965;SDS011;59836;52.132;5.442;2023-08-24T01:34:10;6.95;;;4.50;;
71965;SDS011;59836;52.132;5.442;2023-08-24T01:36:46;6.67;;;4.60;;
71965;SDS011;59836;52.132;5.442;2023-08-24T01:42:26;6.82;;;4.65;;
71965;SDS011;59836;52.132;5.442;2023-08-24T01:47:42;7.80;;;4.20;;
71965;SDS011;59836;52.132;5.442;2023-08-24T01:55:55;6.72;;;4.05;;
71965;SDS011;59836;52.132;5.442;2023-08-24T01:58:35;6.85;;;4.47;;
71965;SDS011;59836;52.132;5.442;2023-08-24T02:01:15;5.88;;;4.43;;
71965;SDS011;59836;52.132;5.442;2023-08-24T02:03:43;5.40;;;4.00;;
71965;SDS011;59836;52.132;5.442;2023-08-24T02:06:15;5.57;;;4.30;;
71965;SDS011;59836;52.132;5.442;2023-08-24T02:08:41;7.95;;;4.28;;
71965;SDS011;59836;52.132;5.442;2023-08-24T02:11:09;7.40;;;4.47;;
71965;SDS011;59836;52.132;5.442;2023-08-24T02:13:36;5.03;;;4.43;;
71965;SDS011;59836;52.132;5.442;2023-08-24T02:16:07;5.93;;;4.13;;
71965;SDS011;59836;52.132;5.442;2023-08-24T02:18:42;5.97;;;4.55;;
71965;SDS011;59836;52.132;5.442;2023-08-24T02:21:09;6.88;;;4.72;;
71965;SDS011;59836;52.132;5.442;2023-08-24T02:23:48;8.82;;;4.40;;
71965;SDS011;59836;52.132;5.442;2023-08-24T02:26:14;9.13;;;4.90;;
71965;SDS011;59836;52.132;5.442;2023-08-24T02:28:41;6.33;;;4.33;;
71965;SDS011;59836;52.132;5.442;2023-08-24T02:31:07;6.45;;;4.65;;
71965;SDS011;59836;52.132;5.442;2023-08-24T02:33:36;6.15;;;4.95;;
71965;SDS011;59836;52.132;5.442;2023-08-24T02:36:16;7.82;;;5.00;;
71965;SDS011;59836;52.132;5.442;2023-08-24T02:42:05;5.77;;;4.77;;
71965;SDS011;59836;52.132;5.442;2023-08-24T02:44:36;7.60;;;4.65;;
71965;SDS011;59836;52.132;5.442;2023-08-24T02:47:12;7.47;;;5.20;;
71965;SDS011;59836;52.132;5.442;2023-08-24T02:49:44;7.35;;;4.82;;
71965;SDS011;59836;52.132;5.442;2023-08-24T02:52:11;8.07;;;4.90;;
71965;SDS011;59836;52.132;5.442;2023-08-24T02:57:23;9.68;;;5.20;;
71965;SDS011;59836;52.132;5.442;2023-08-24T03:02:58;6.60;;;4.70;;
71965;SDS011;59836;52.132;5.442;2023-08-24T03:05:33;9.05;;;5.50;;
71965;SDS011;59836;52.132;5.442;2023-08-24T03:08:33;7.67;;;5.17;;
71965;SDS011;59836;52.132;5.442;2023-08-24T03:11:01;9.40;;;4.95;;
71965;SDS011;59836;52.132;5.442;2023-08-24T03:13:29;9.27;;;4.97;;
71965;SDS011;59836;52.132;5.442;2023-08-24T03:19:17;8.13;;;4.82;;
71965;SDS011;59836;52.132;5.442;2023-08-24T03:21:44;8.53;;;5.90;;
71965;SDS011;59836;52.132;5.442;2023-08-24T03:24:11;9.70;;;5.82;;
71965;SDS011;59836;52.132;5.442;2023-08-24T03:26:38;6.50;;;5.40;;
71965;SDS011;59836;52.132;5.442;2023-08-24T03:29:05;7.28;;;5.30;;
71965;SDS011;59836;52.132;5.442;2023-08-24T03:31:47;7.40;;;5.80;;
71965;SDS011;59836;52.132;5.442;2023-08-24T03:34:14;9.10;;;5.87;;
71965;SDS011;59836;52.132;5.442;2023-08-24T03:36:40;10.02;;;5.70;;
71965;SDS011;59836;52.132;5.442;2023-08-24T03:41:43;8.00;;;5.50;;
71965;SDS011;59836;52.132;5.442;2023-08-24T03:44:10;7.80;;;5.72;;
71965;SDS011;59836;52.132;5.442;2023-08-24T03:46:37;6.77;;;5.47;;
71965;SDS011;59836;52.132;5.442;2023-08-24T03:49:04;9.35;;;5.57;;
71965;SDS011;59836;52.132;5.442;2023-08-24T03:54:34;10.45;;;5.97;;
71965;SDS011;59836;52.132;5.442;2023-08-24T03:57:06;7.22;;;5.45;;
71965;SDS011;59836;52.132;5.442;2023-08-24T04:03:21;7.93;;;5.60;;
71965;SDS011;59836;52.132;5.442;2023-08-24T04:05:48;8.85;;;6.40;;
71965;SDS011;59836;52.132;5.442;2023-08-24T04:08:18;8.77;;;5.38;;
71965;SDS011;59836;52.132;5.442;2023-08-24T04:10:51;9.27;;;5.72;;
71965;SDS011;59836;52.132;5.442;2023-08-24T04:13:19;8.73;;;5.37;;
71965;SDS011;59836;52.132;5.442;2023-08-24T04:15:45;14.27;;;5.90;;
71965;SDS011;59836;52.132;5.442;2023-08-24T04:18:12;8.73;;;6.38;;
71965;SDS011;59836;52.132;5.442;2023-08-24T04:20:42;9.23;;;5.88;;
71965;SDS011;59836;52.132;5.442;2023-08-24T04:23:13;7.97;;;5.65;;
71965;SDS011;59836;52.132;5.442;2023-08-24T04:25:46;8.00;;;5.93;;
71965;SDS011;59836;52.132;5.442;2023-08-24T04:33:48;9.38;;;5.82;;
71965;SDS011;59836;52.132;5.442;2023-08-24T04:36:21;7.72;;;5.78;;
71965;SDS011;59836;52.132;5.442;2023-08-24T04:38:49;7.47;;;5.40;;
71965;SDS011;59836;52.132;5.442;2023-08-24T04:44:22;9.45;;;6.05;;
71965;SDS011;59836;52.132;5.442;2023-08-24T04:46:49;6.60;;;5.43;;
71965;SDS011;59836;52.132;5.442;2023-08-24T04:49:19;11.15;;;6.00;;
71965;SDS011;59836;52.132;5.442;2023-08-24T04:51:46;7.77;;;5.40;;
71965;SDS011;59836;52.132;5.442;2023-08-24T04:54:25;8.93;;;5.90;;
71965;SDS011;59836;52.132;5.442;2023-08-24T04:56:53;9.30;;;5.57;;
71965;SDS011;59836;52.132;5.442;2023-08-24T04:59:19;8.15;;;6.00;;
71965;SDS011;59836;52.132;5.442;2023-08-24T05:01:47;9.68;;;6.45;;
71965;SDS011;59836;52.132;5.442;2023-08-24T05:04:14;7.60;;;5.23;;
71965;SDS011;59836;52.132;5.442;2023-08-24T05:09:42;6.35;;;5.53;;
71965;SDS011;59836;52.132;5.442;2023-08-24T05:24:07;8.00;;;5.93;;
71965;SDS011;59836;52.132;5.442;2023-08-24T05:26:43;7.70;;;5.35;;
71965;SDS011;59836;52.132;5.442;2023-08-24T05:29:09;9.10;;;5.82;;
71965;SDS011;59836;52.132;5.442;2023-08-24T05:31:43;8.53;;;5.77;;
71965;SDS011;59836;52.132;5.442;2023-08-24T05:34:16;9.57;;;5.75;;
71965;SDS011;59836;52.132;5.442;2023-08-24T05:39:42;9.48;;;5.65;;
71965;SDS011;59836;52.132;5.442;2023-08-24T05:42:08;8.45;;;6.18;;
71965;SDS011;59836;52.132;5.442;2023-08-24T05:44:36;8.17;;;6.03;;
71965;SDS011;59836;52.132;5.442;2023-08-24T05:49:58;6.90;;;5.63;;
71965;SDS011;59836;52.132;5.442;2023-08-24T05:52:43;7.40;;;5.97;;
71965;SDS011;59836;52.132;5.442;2023-08-24T05:58:04;8.47;;;5.93;;
71965;SDS011;59836;52.132;5.442;2023-08-24T06:03:08;9.93;;;6.15;;
71965;SDS011;59836;52.132;5.442;2023-08-24T06:08:22;9.75;;;5.97;;
71965;SDS011;59836;52.132;5.442;2023-08-24T06:10:49;8.90;;;5.47;;
71965;SDS011;59836;52.132;5.442;2023-08-24T06:13:20;7.40;;;5.82;;
71965;SDS011;59836;52.132;5.442;2023-08-24T06:15:47;8.95;;;6.30;;
71965;SDS011;59836;52.132;5.442;2023-08-24T06:18:32;9.45;;;5.78;;
71965;SDS011;59836;52.132;5.442;2023-08-24T06:20:59;12.15;;;6.55;;
71965;SDS011;59836;52.132;5.442;2023-08-24T06:23:43;11.43;;;5.97;;
71965;SDS011;59836;52.132;5.442;2023-08-24T06:26:10;9.95;;;6.00;;
71965;SDS011;59836;52.132;5.442;2023-08-24T06:28:40;9.75;;;6.30;;
71965;SDS011;59836;52.132;5.442;2023-08-24T06:31:06;11.02;;;6.35;;
71965;SDS011;59836;52.132;5.442;2023-08-24T06:33:36;12.23;;;6.60;;
71965;SDS011;59836;52.132;5.442;2023-08-24T06:38:47;8.90;;;6.57;;
71965;SDS011;59836;52.132;5.442;2023-08-24T06:41:13;11.73;;;7.95;;
71965;SDS011;59836;52.132;5.442;2023-08-24T06:43:47;10.90;;;6.88;;
71965;SDS011;59836;52.132;5.442;2023-08-24T06:46:14;12.50;;;6.72;;
71965;SDS011;59836;52.132;5.442;2023-08-24T06:48:40;9.30;;;7.13;;
71965;SDS011;59836;52.132;5.442;2023-08-24T06:51:09;9.35;;;6.15;;
71965;SDS011;59836;52.132;5.442;2023-08-24T06:53:36;9.07;;;5.95;;
71965;SDS011;59836;52.132;5.442;2023-08-24T06:56:14;12.65;;;6.63;;
71965;SDS011;59836;52.132;5.442;2023-08-24T06:58:47;15.70;;;8.23;;
71965;SDS011;59836;52.132;5.442;2023-08-24T07:01:14;14.07;;;8.10;;
71965;SDS011;59836;52.132;5.442;2023-08-24T07:03:42;12.55;;;8.18;;
71965;SDS011;59836;52.132;5.442;2023-08-24T07:08:42;11.52;;;8.18;;
71965;SDS011;59836;52.132;5.442;2023-08-24T07:11:08;13.07;;;8.48;;
71965;SDS011;59836;52.132;5.442;2023-08-24T07:13:43;11.90;;;8.57;;
71965;SDS011;59836;52.132;5.442;2023-08-24T07:16:09;15.00;;;8.52;;
71965;SDS011;59836;52.132;5.442;2023-08-24T07:18:46;10.93;;;8.35;;
71965;SDS011;59836;52.132;5.442;2023-08-24T07:21:13;10.80;;;8.40;;
71965;SDS011;59836;52.132;5.442;2023-08-24T07:23:43;13.55;;;9.18;;
71965;SDS011;59836;52.132;5.442;2023-08-24T07:26:10;17.60;;;9.53;;
71965;SDS011;59836;52.132;5.442;2023-08-24T07:28:36;11.05;;;8.10;;
71965;SDS011;59836;52.132;5.442;2023-08-24T07:31:26;11.85;;;8.52;;
71965;SDS011;59836;52.132;5.442;2023-08-24T07:33:55;12.57;;;9.63;;
71965;SDS011;59836;52.132;5.442;2023-08-24T07:36:45;14.88;;;9.05;;
71965;SDS011;59836;52.132;5.442;2023-08-24T07:42:30;14.43;;;9.45;;
71965;SDS011;59836;52.132;5.442;2023-08-24T07:45:01;13.82;;;9.90;;
71965;SDS011;59836;52.132;5.442;2023-08-24T07:47:27;14.48;;;9.02;;
71965;SDS011;59836;52.132;5.442;2023-08-24T07:49:54;13.13;;;9.68;;
71965;SDS011;59836;52.132;5.442;2023-08-24T07:52:20;14.77;;;9.60;;
71965;SDS011;59836;52.132;5.442;2023-08-24T07:54:48;12.43;;;9.73;;
71965;SDS011;59836;52.132;5.442;2023-08-24T07:57:15;16.73;;;10.43;;
71965;SDS011;59836;52.132;5.442;2023-08-24T07:59:42;13.98;;;10.52;;
71965;SDS011;59836;52.132;5.442;2023-08-24T08:02:09;13.68;;;10.52;;
71965;SDS011;59836;52.132;5.442;2023-08-24T08:04:38;14.83;;;10.37;;
71965;SDS011;59836;52.132;5.442;2023-08-24T08:07:06;13.02;;;10.25;;
71965;SDS011;59836;52.132;5.442;2023-08-24T08:09:33;17.15;;;12.02;;
71965;SDS011;59836;52.132;5.442;2023-08-24T08:12:02;14.88;;;11.18;;
71965;SDS011;59836;52.132;5.442;2023-08-24T08:14:32;12.55;;;9.65;;
71965;SDS011;59836;52.132;5.442;2023-08-24T08:17:02;14.53;;;10.43;;
71965;SDS011;59836;52.132;5.442;2023-08-24T08:19:28;14.25;;;10.05;;
71965;SDS011;59836;52.132;5.442;2023-08-24T08:21:55;14.88;;;11.27;;
71965;SDS011;59836;52.132;5.442;2023-08-24T08:24:21;15.60;;;11.25;;
71965;SDS011;59836;52.132;5.442;2023-08-24T08:26:51;16.15;;;10.88;;
71965;SDS011;59836;52.132;5.442;2023-08-24T08:29:19;13.90;;;10.33;;
71965;SDS011;59836;52.132;5.442;2023-08-24T08:31:45;13.77;;;10.27;;
71965;SDS011;59836;52.132;5.442;2023-08-24T08:34:12;14.45;;;9.75;;
71965;SDS011;59836;52.132;5.442;2023-08-24T08:36:42;12.70;;;10.07;;
71965;SDS011;59836;52.132;5.442;2023-08-24T08:39:16;14.38;;;9.65;;
71965;SDS011;59836;52.132;5.442;2023-08-24T08:41:50;11.73;;;9.50;;
71965;SDS011;59836;52.132;5.442;2023-08-24T08:44:23;13.63;;;9.90;;
71965;SDS011;59836;52.132;5.442;2023-08-24T08:47:02;12.05;;;9.25;;
71965;SDS011;59836;52.132;5.442;2023-08-24T08:49:33;13.25;;;9.95;;
71965;SDS011;59836;52.132;5.442;2023-08-24T08:52:02;13.43;;;9.90;;
71965;SDS011;59836;52.132;5.442;2023-08-24T08:54:31;11.57;;;8.93;;
71965;SDS011;59836;52.132;5.442;2023-08-24T08:57:05;14.98;;;10.18;;
71965;SDS011;59836;52.132;5.442;2023-08-24T08:59:59;13.13;;;9.63;;
71965;SDS011;59836;52.132;5.442;2023-08-24T09:02:42;11.88;;;8.90;;
71965;SDS011;59836;52.132;5.442;2023-08-24T09:05:12;12.18;;;8.18;;
71965;SDS011;59836;52.132;5.442;2023-08-24T09:07:42;11.23;;;7.90;;
71965;SDS011;59836;52.132;5.442;2023-08-24T09:10:08;13.70;;;7.80;;
71965;SDS011;59836;52.132;5.442;2023-08-24T09:12:47;10.57;;;8.30;;
71965;SDS011;59836;52.132;5.442;2023-08-24T09:15:13;13.48;;;8.73;;
71965;SDS011;59836;52.132;5.442;2023-08-24T09:17:43;11.73;;;8.38;;
71965;SDS011;59836;52.132;5.442;2023-08-24T09:20:10;12.53;;;8.50;;
71965;SDS011;59836;52.132;5.442;2023-08-24T09:22:56;13.52;;;8.13;;
71965;SDS011;59836;52.132;5.442;2023-08-24T09:25:24;11.38;;;7.95;;
71965;SDS011;59836;52.132;5.442;2023-08-24T09:28:02;10.07;;;7.38;;
71965;SDS011;59836;52.132;5.442;2023-08-24T09:30:36;11.75;;;8.18;;
71965;SDS011;59836;52.132;5.442;2023-08-24T09:33:10;10.80;;;7.17;;
71965;SDS011;59836;52.132;5.442;2023-08-24T09:35:37;11.13;;;8.23;;
71965;SDS011;59836;52.132;5.442;2023-08-24T09:38:21;13.52;;;7.95;;
71965;SDS011;59836;52.132;5.442;2023-08-24T09:40:52;11.05;;;7.85;;
71965;SDS011;59836;52.132;5.442;2023-08-24T09:43:22;10.80;;;7.68;;
71965;SDS011;59836;52.132;5.442;2023-08-24T09:45:53;10.60;;;7.93;;
71965;SDS011;59836;52.132;5.442;2023-08-24T09:48:21;13.57;;;7.43;;
71965;SDS011;59836;52.132;5.442;2023-08-24T09:50:52;12.30;;;7.60;;
71965;SDS011;59836;52.132;5.442;2023-08-24T09:53:19;10.48;;;7.82;;
71965;SDS011;59836;52.132;5.442;2023-08-24T09:58:42;12.30;;;7.33;;
71965;SDS011;59836;52.132;5.442;2023-08-24T10:01:12;12.35;;;7.40;;
71965;SDS011;59836;52.132;5.442;2023-08-24T10:03:44;9.52;;;7.07;;
71965;SDS011;59836;52.132;5.442;2023-08-24T10:06:13;12.13;;;8.25;;
71965;SDS011;59836;52.132;5.442;2023-08-24T10:08:43;13.77;;;9.05;;
71965;SDS011;59836;52.132;5.442;2023-08-24T10:14:08;10.25;;;7.93;;
71965;SDS011;59836;52.132;5.442;2023-08-24T10:16:41;12.05;;;7.63;;
71965;SDS011;59836;52.132;5.442;2023-08-24T10:22:03;11.95;;;9.00;;
71965;SDS011;59836;52.132;5.442;2023-08-24T10:27:24;11.25;;;7.38;;
71965;SDS011;59836;52.132;5.442;2023-08-24T10:29:53;8.52;;;7.03;;
71965;SDS011;59836;52.132;5.442;2023-08-24T10:32:20;9.45;;;6.75;;
71965;SDS011;59836;52.132;5.442;2023-08-24T10:34:50;9.57;;;7.40;;
71965;SDS011;59836;52.132;5.442;2023-08-24T10:37:22;10.33;;;6.50;;
71965;SDS011;59836;52.132;5.442;2023-08-24T10:39:51;11.80;;;7.57;;
71965;SDS011;59836;52.132;5.442;2023-08-24T10:42:18;13.98;;;7.85;;
71965;SDS011;59836;52.132;5.442;2023-08-24T10:44:48;10.63;;;7.75;;
71965;SDS011;59836;52.132;5.442;2023-08-24T10:47:19;10.70;;;8.18;;
71965;SDS011;59836;52.132;5.442;2023-08-24T10:50:04;13.33;;;8.53;;
71965;SDS011;59836;52.132;5.442;2023-08-24T10:52:32;13.13;;;8.32;;
71965;SDS011;59836;52.132;5.442;2023-08-24T10:55:02;14.40;;;9.48;;
71965;SDS011;59836;52.132;5.442;2023-08-24T10:57:37;12.82;;;9.48;;
71965;SDS011;59836;52.132;5.442;2023-08-24T11:02:45;14.83;;;10.10;;
71965;SDS011;59836;52.132;5.442;2023-08-24T11:05:23;15.20;;;10.68;;
71965;SDS011;59836;52.132;5.442;2023-08-24T11:07:58;12.35;;;10.20;;
71965;SDS011;59836;52.132;5.442;2023-08-24T11:10:35;14.75;;;10.65;;
71965;SDS011;59836;52.132;5.442;2023-08-24T11:13:16;14.32;;;11.60;;
71965;SDS011;59836;52.132;5.442;2023-08-24T11:15:47;15.13;;;11.47;;
71965;SDS011;59836;52.132;5.442;2023-08-24T11:20:59;17.25;;;11.15;;
71965;SDS011;59836;52.132;5.442;2023-08-24T11:23:28;15.80;;;12.13;;
71965;SDS011;59836;52.132;5.442;2023-08-24T11:25:56;15.95;;;11.60;;
71965;SDS011;59836;52.132;5.442;2023-08-24T11:28:26;15.73;;;11.90;;
71965;SDS011;59836;52.132;5.442;2023-08-24T11:30:54;16.30;;;11.35;;
71965;SDS011;59836;52.132;5.442;2023-08-24T11:35:55;15.27;;;11.13;;
71965;SDS011;59836;52.132;5.442;2023-08-24T11:38:22;17.17;;;12.70;;
71965;SDS011;59836;52.132;5.442;2023-08-24T11:40:49;18.67;;;12.33;;
71965;SDS011;59836;52.132;5.442;2023-08-24T11:43:23;16.23;;;11.45;;
71965;SDS011;59836;52.132;5.442;2023-08-24T11:45:53;16.08;;;11.80;;
71965;SDS011;59836;52.132;5.442;2023-08-24T11:48:27;19.10;;;12.75;;
71965;SDS011;59836;52.132;5.442;2023-08-24T11:50:56;16.35;;;12.40;;
71965;SDS011;59836;52.132;5.442;2023-08-24T11:53:24;16.00;;;12.20;;
71965;SDS011;59836;52.132;5.442;2023-08-24T11:59:18;14.50;;;11.90;;
71965;SDS011;59836;52.132;5.442;2023-08-24T12:01:45;18.70;;;12.55;;
71965;SDS011;59836;52.132;5.442;2023-08-24T12:06:51;17.77;;;11.67;;
71965;SDS011;59836;52.132;5.442;2023-08-24T12:09:20;16.13;;;11.75;;
71965;SDS011;59836;52.132;5.442;2023-08-24T12:12:02;15.50;;;12.75;;
71965;SDS011;59836;52.132;5.442;2023-08-24T12:14:29;17.00;;;12.57;;
71965;SDS011;59836;52.132;5.442;2023-08-24T12:19:56;17.73;;;12.07;;
71965;SDS011;59836;52.132;5.442;2023-08-24T12:22:26;15.80;;;11.93;;
71965;SDS011;59836;52.132;5.442;2023-08-24T12:24:54;17.60;;;13.27;;
71965;SDS011;59836;52.132;5.442;2023-08-24T12:27:24;16.52;;;12.43;;
71965;SDS011;59836;52.132;5.442;2023-08-24T12:29:52;16.60;;;11.93;;
71965;SDS011;59836;52.132;5.442;2023-08-24T12:32:19;14.77;;;12.23;;
71965;SDS011;59836;52.132;5.442;2023-08-24T12:34:49;16.40;;;13.23;;
71965;SDS011;59836;52.132;5.442;2023-08-24T12:37:17;17.67;;;12.70;;
71965;SDS011;59836;52.132;5.442;2023-08-24T12:39:44;18.30;;;12.73;;
71965;SDS011;59836;52.132;5.442;2023-08-24T12:42:11;19.15;;;14.15;;
71965;SDS011;59836;52.132;5.442;2023-08-24T12:44:37;17.17;;;12.73;;
71965;SDS011;59836;52.132;5.442;2023-08-24T12:47:04;21.73;;;14.07;;
71965;SDS011;59836;52.132;5.442;2023-08-24T12:49:31;17.52;;;13.35;;
71965;SDS011;59836;52.132;5.442;2023-08-24T12:51:57;18.40;;;12.23;;
71965;SDS011;59836;52.132;5.442;2023-08-24T12:54:24;17.20;;;12.75;;
71965;SDS011;59836;52.132;5.442;2023-08-24T12:56:51;17.70;;;12.70;;
71965;SDS011;59836;52.132;5.442;2023-08-24T12:59:18;15.27;;;11.27;;
71965;SDS011;59836;52.132;5.442;2023-08-24T13:01:44;17.08;;;12.95;;
71965;SDS011;59836;52.132;5.442;2023-08-24T13:04:11;14.98;;;11.32;;
71965;SDS011;59836;52.132;5.442;2023-08-24T13:06:37;17.48;;;13.95;;
71965;SDS011;59836;52.132;5.442;2023-08-24T13:09:04;15.63;;;12.53;;
71965;SDS011;59836;52.132;5.442;2023-08-24T13:11:31;15.90;;;13.30;;
71965;SDS011;59836;52.132;5.442;2023-08-24T13:14:12;16.17;;;13.38;;
71965;SDS011;59836;52.132;5.442;2023-08-24T13:16:45;17.10;;;12.77;;
71965;SDS011;59836;52.132;5.442;2023-08-24T13:19:12;16.10;;;10.98;;
71965;SDS011;59836;52.132;5.442;2023-08-24T13:21:38;16.40;;;10.50;;
71965;SDS011;59836;52.132;5.442;2023-08-24T13:24:05;14.43;;;10.18;;
71965;SDS011;59836;52.132;5.442;2023-08-24T13:26:38;19.30;;;11.43;;
71965;SDS011;59836;52.132;5.442;2023-08-24T13:29:11;14.43;;;11.15;;
71965;SDS011;59836;52.132;5.442;2023-08-24T13:31:37;13.63;;;11.07;;
71965;SDS011;59836;52.132;5.442;2023-08-24T13:34:04;16.07;;;10.33;;
71965;SDS011;59836;52.132;5.442;2023-08-24T13:36:33;12.25;;;10.43;;
71965;SDS011;59836;52.132;5.442;2023-08-24T13:39:00;14.88;;;12.48;;
71965;SDS011;59836;52.132;5.442;2023-08-24T13:41:26;16.42;;;10.75;;
71965;SDS011;59836;52.132;5.442;2023-08-24T13:43:53;14.20;;;10.80;;
71965;SDS011;59836;52.132;5.442;2023-08-24T13:46:27;16.50;;;10.90;;
71965;SDS011;59836;52.132;5.442;2023-08-24T13:48:54;14.95;;;10.60;;
71965;SDS011;59836;52.132;5.442;2023-08-24T13:51:21;17.90;;;11.65;;
71965;SDS011;59836;52.132;5.442;2023-08-24T13:53:47;16.58;;;11.32;;
71965;SDS011;59836;52.132;5.442;2023-08-24T13:56:14;16.25;;;11.63;;
71965;SDS011;59836;52.132;5.442;2023-08-24T13:58:40;19.40;;;13.13;;
71965;SDS011;59836;52.132;5.442;2023-08-24T14:01:07;16.42;;;12.32;;
71965;SDS011;59836;52.132;5.442;2023-08-24T14:03:42;16.40;;;12.93;;
71965;SDS011;59836;52.132;5.442;2023-08-24T14:06:09;15.45;;;12.48;;
71965;SDS011;59836;52.132;5.442;2023-08-24T14:08:45;18.55;;;13.38;;
71965;SDS011;59836;52.132;5.442;2023-08-24T14:11:12;16.10;;;12.27;;
71965;SDS011;59836;52.132;5.442;2023-08-24T14:13:40;16.05;;;13.40;;
71965;SDS011;59836;52.132;5.442;2023-08-24T14:16:06;16.48;;;12.98;;
71965;SDS011;59836;52.132;5.442;2023-08-24T14:21:15;19.90;;;16.13;;
71965;SDS011;59836;52.132;5.442;2023-08-24T14:23:52;15.07;;;12.93;;
71965;SDS011;59836;52.132;5.442;2023-08-24T14:26:18;16.20;;;14.20;;
71965;SDS011;59836;52.132;5.442;2023-08-24T14:28:52;21.45;;;16.35;;
71965;SDS011;59836;52.132;5.442;2023-08-24T14:31:21;19.48;;;15.02;;
71965;SDS011;59836;52.132;5.442;2023-08-24T14:33:48;23.17;;;19.00;;
71965;SDS011;59836;52.132;5.442;2023-08-24T14:36:14;22.10;;;17.70;;
71965;SDS011;59836;52.132;5.442;2023-08-24T14:38:41;23.55;;;17.92;;
71965;SDS011;59836;52.132;5.442;2023-08-24T14:41:11;22.08;;;17.63;;
71965;SDS011;59836;52.132;5.442;2023-08-24T14:43:39;20.50;;;17.05;;
71965;SDS011;59836;52.132;5.442;2023-08-24T14:46:06;24.33;;;18.45;;
71965;SDS011;59836;52.132;5.442;2023-08-24T14:48:33;19.40;;;16.33;;
71965;SDS011;59836;52.132;5.442;2023-08-24T14:51:01;20.15;;;16.50;;
71965;SDS011;59836;52.132;5.442;2023-08-24T14:53:28;20.55;;;16.83;;
71965;SDS011;59836;52.132;5.442;2023-08-24T14:55:56;17.90;;;14.25;;
71965;SDS011;59836;52.132;5.442;2023-08-24T15:01:15;19.07;;;12.97;;
71965;SDS011;59836;52.132;5.442;2023-08-24T15:03:42;16.70;;;11.50;;
71965;SDS011;59836;52.132;5.442;2023-08-24T15:06:14;17.92;;;12.02;;
71965;SDS011;59836;52.132;5.442;2023-08-24T15:08:52;18.00;;;11.82;;
71965;SDS011;59836;52.132;5.442;2023-08-24T15:11:37;14.38;;;11.45;;
71965;SDS011;59836;52.132;5.442;2023-08-24T15:14:15;15.07;;;11.70;;
71965;SDS011;59836;52.132;5.442;2023-08-24T15:16:48;13.55;;;10.32;;
71965;SDS011;59836;52.132;5.442;2023-08-24T15:22:04;16.05;;;11.90;;
71965;SDS011;59836;52.132;5.442;2023-08-24T15:24:40;13.32;;;10.77;;
71965;SDS011;59836;52.132;5.442;2023-08-24T15:27:09;12.13;;;10.13;;
71965;SDS011;59836;52.132;5.442;2023-08-24T15:29:35;13.68;;;10.20;;
71965;SDS011;59836;52.132;5.442;2023-08-24T15:32:12;13.48;;;10.77;;
71965;SDS011;59836;52.132;5.442;2023-08-24T15:34:39;14.25;;;10.40;;
71965;SDS011;59836;52.132;5.442;2023-08-24T15:37:10;15.52;;;10.93;;
71965;SDS011;59836;52.132;5.442;2023-08-24T15:39:38;14.40;;;10.83;;
71965;SDS011;59836;52.132;5.442;2023-08-24T15:42:06;12.48;;;10.00;;
71965;SDS011;59836;52.132;5.442;2023-08-24T15:47:42;12.90;;;10.48;;
71965;SDS011;59836;52.132;5.442;2023-08-24T15:50:11;14.35;;;10.38;;
71965;SDS011;59836;52.132;5.442;2023-08-24T15:52:38;16.63;;;11.80;;
71965;SDS011;59836;52.132;5.442;2023-08-24T15:57:34;16.33;;;9.98;;
71965;SDS011;59836;52.132;5.442;2023-08-24T16:00:01;12.13;;;9.13;;
71965;SDS011;59836;52.132;5.442;2023-08-24T16:02:27;12.63;;;8.77;;
71965;SDS011;59836;52.132;5.442;2023-08-24T16:04:55;9.23;;;6.37;;
71965;SDS011;59836;52.132;5.442;2023-08-24T16:07:22;8.23;;;6.38;;
71965;SDS011;59836;52.132;5.442;2023-08-24T16:09:56;10.38;;;6.30;;
71965;SDS011;59836;52.132;5.442;2023-08-24T16:12:23;8.02;;;5.78;;
71965;SDS011;59836;52.132;5.442;2023-08-24T16:14:50;8.27;;;5.63;;
71965;SDS011;59836;52.132;5.442;2023-08-24T16:17:16;9.03;;;5.57;;
71965;SDS011;59836;52.132;5.442;2023-08-24T16:19:51;8.82;;;6.30;;
71965;SDS011;59836;52.132;5.442;2023-08-24T16:22:18;8.93;;;5.90;;
71965;SDS011;59836;52.132;5.442;2023-08-24T16:24:44;9.60;;;5.20;;
71965;SDS011;59836;52.132;5.442;2023-08-24T16:27:11;7.53;;;4.97;;
71965;SDS011;59836;52.132;5.442;2023-08-24T16:29:37;6.97;;;4.23;;
71965;SDS011;59836;52.132;5.442;2023-08-24T16:32:09;6.72;;;4.47;;
71965;SDS011;59836;52.132;5.442;2023-08-24T16:34:36;7.80;;;4.80;;
71965;SDS011;59836;52.132;5.442;2023-08-24T16:37:02;6.40;;;4.03;;
71965;SDS011;59836;52.132;5.442;2023-08-24T16:39:29;8.43;;;4.32;;
71965;SDS011;59836;52.132;5.442;2023-08-24T16:41:57;10.33;;;4.27;;
71965;SDS011;59836;52.132;5.442;2023-08-24T16:44:25;5.50;;;3.97;;
71965;SDS011;59836;52.132;5.442;2023-08-24T16:46:51;7.90;;;4.38;;
71965;SDS011;59836;52.132;5.442;2023-08-24T16:49:27;5.82;;;4.10;;
71965;SDS011;59836;52.132;5.442;2023-08-24T16:51:55;5.40;;;4.32;;
71965;SDS011;59836;52.132;5.442;2023-08-24T16:54:22;5.17;;;3.70;;
71965;SDS011;59836;52.132;5.442;2023-08-24T16:56:49;8.25;;;4.22;;
71965;SDS011;59836;52.132;5.442;2023-08-24T16:59:15;5.40;;;3.63;;
71965;SDS011;59836;52.132;5.442;2023-08-24T17:01:42;5.30;;;3.65;;
71965;SDS011;59836;52.132;5.442;2023-08-24T17:04:10;6.60;;;3.90;;
71965;SDS011;59836;52.132;5.442;2023-08-24T17:06:36;5.57;;;3.50;;
71965;SDS011;59836;52.132;5.442;2023-08-24T17:11:56;4.18;;;3.20;;
71965;SDS011;59836;52.132;5.442;2023-08-24T17:14:23;5.20;;;3.63;;
71965;SDS011;59836;52.132;5.442;2023-08-24T17:16:52;5.85;;;3.00;;
71965;SDS011;59836;52.132;5.442;2023-08-24T17:19:20;3.60;;;2.73;;